createdAt,value
2019-05-26T00:01:12.385Z,72.79
2019-05-26T00:03:44.170Z,73.13
2019-05-26T00:06:16.344Z,73.67
2019-05-26T00:08:48.809Z,74.77
2019-05-26T00:11:21.138Z,74.75
2019-05-26T00:13:53.405Z,74.82
2019-05-26T00:16:25.052Z,75.22
2019-05-26T00:18:57.065Z,77.43
2019-05-26T00:21:29.234Z,76.31
2019-05-26T00:24:01.604Z,76.28
2019-05-26T00:26:34.083Z,75.57
2019-05-26T00:29:05.846Z,75.19
2019-05-26T00:31:38.336Z,75.27
2019-05-26T00:34:10.353Z,75.15
2019-05-26T00:36:41.826Z,75.17
2019-05-26T00:39:13.937Z,76.33
2019-05-26T00:41:45.904Z,75.29
2019-05-26T00:44:17.944Z,76.42
2019-05-26T00:46:50.390Z,75.19
2019-05-26T00:49:22.019Z,75.55
2019-05-26T00:51:54.633Z,75.51
2019-05-26T00:54:27.047Z,75.25
2019-05-26T00:56:59.006Z,74.96
2019-05-26T00:59:32.759Z,75.67
2019-05-26T01:02:06.661Z,74.94
2019-05-26T01:04:39.253Z,75.07
2019-05-26T01:07:11.599Z,75.11
2019-05-26T01:11:21.963Z,75.12
2019-05-26T01:12:23.219Z,75.15
2019-05-26T01:14:55.390Z,75.10
2019-05-26T01:17:27.710Z,75.05
2019-05-26T01:20:00.085Z,75.13
2019-05-26T01:22:31.440Z,74.67
2019-05-26T01:25:03.505Z,74.80
2019-05-26T01:27:35.514Z,74.81
2019-05-26T01:30:09.054Z,75.71
2019-05-26T01:32:41.228Z,75.33
2019-05-26T01:35:12.938Z,75.37
2019-05-26T01:37:45.948Z,75.06
2019-05-26T01:40:20.876Z,75.62
2019-05-26T01:42:52.571Z,75.76
2019-05-26T01:45:25.016Z,75.30
2019-05-26T01:47:57.339Z,75.77
2019-05-26T01:50:29.727Z,75.67
2019-05-26T01:53:01.888Z,76.01
2019-05-26T01:55:33.592Z,76.16
2019-05-26T01:58:06.295Z,76.22
2019-05-26T02:00:39.673Z,76.23
2019-05-26T02:03:12.176Z,76.70
2019-05-26T02:05:44.443Z,76.80
2019-05-26T02:08:16.137Z,75.91
2019-05-26T02:10:48.534Z,76.08
2019-05-26T02:13:20.706Z,76.58
2019-05-26T02:15:52.401Z,76.41
2019-05-26T02:18:24.895Z,76.64
2019-05-26T02:20:56.436Z,77.09
2019-05-26T02:23:28.535Z,76.65
2019-05-26T02:26:00.954Z,76.79
2019-05-26T02:28:32.437Z,76.79
2019-05-26T02:31:04.929Z,76.76
2019-05-26T02:33:36.945Z,76.68
2019-05-26T02:36:09.242Z,76.58
2019-05-26T02:38:59.902Z,76.65
2019-05-26T02:41:18.656Z,76.50
2019-05-26T02:43:54.283Z,76.71
2019-05-26T02:46:27.874Z,76.58
2019-05-26T02:48:59.624Z,76.27
2019-05-26T02:51:32.073Z,76.41
2019-05-26T02:54:04.528Z,76.12
2019-05-26T02:56:36.518Z,76.77
2019-05-26T02:59:20.453Z,76.59
2019-05-26T03:02:03.113Z,76.36
2019-05-26T03:04:26.609Z,76.29
2019-05-26T03:06:58.895Z,76.22
2019-05-26T03:09:33.922Z,76.70
2019-05-26T03:12:06.853Z,76.57
2019-05-26T03:14:41.621Z,75.97
2019-05-26T03:17:15.598Z,76.23
2019-05-26T03:19:51.549Z,76.74
2019-05-26T03:22:26.462Z,75.97
2019-05-26T03:25:34.541Z,76.06
2019-05-26T03:28:07.218Z,75.78
2019-05-26T03:30:39.526Z,75.69
2019-05-26T03:33:12.031Z,75.45
2019-05-26T03:35:44.599Z,75.62
2019-05-26T03:38:17.049Z,75.16
2019-05-26T03:40:49.335Z,75.33
2019-05-26T03:43:20.979Z,74.96
2019-05-26T03:46:20.229Z,75.71
2019-05-26T03:48:52.353Z,74.79
2019-05-26T03:51:27.117Z,75.16
2019-05-26T03:53:59.559Z,75.36
2019-05-26T03:56:32.054Z,76.05
2019-05-26T03:59:06.106Z,76.14
2019-05-26T04:01:38.270Z,75.52
2019-05-26T04:04:12.499Z,75.17
2019-05-26T04:06:44.952Z,75.11
2019-05-26T04:09:16.974Z,75.72
2019-05-26T04:11:48.472Z,76.41
2019-05-26T04:14:20.972Z,76.17
2019-05-26T04:16:56.372Z,75.96
2019-05-26T04:19:28.039Z,75.21
2019-05-26T04:22:00.401Z,75.80
2019-05-26T04:24:31.969Z,74.89
2019-05-26T04:27:04.717Z,74.79
2019-05-26T04:29:37.062Z,74.24
2019-05-26T04:32:09.659Z,73.82
2019-05-26T04:34:43.812Z,74.25
2019-05-26T04:37:21.103Z,73.94
2019-05-26T04:39:53.300Z,74.80
2019-05-26T04:42:25.947Z,74.03
2019-05-26T04:44:59.449Z,72.77
2019-05-26T04:47:35.038Z,72.54
2019-05-26T04:50:12.412Z,71.81
2019-05-26T04:53:04.351Z,71.32
2019-05-26T04:55:23.890Z,70.69
2019-05-26T04:58:29.584Z,71.15
2019-05-26T05:01:00.420Z,70.29
2019-05-26T05:03:33.090Z,69.61
2019-05-26T05:06:04.641Z,69.19
2019-05-26T05:08:37.081Z,68.76
2019-05-26T05:11:09.469Z,67.34
2019-05-26T05:13:42.251Z,66.97
2019-05-26T05:16:16.994Z,67.43
2019-05-26T05:18:48.652Z,65.39
2019-05-26T05:21:21.243Z,64.62
2019-05-26T05:23:54.026Z,63.68
2019-05-26T05:26:25.707Z,64.20
2019-05-26T05:28:58.384Z,63.32
2019-05-26T05:31:30.805Z,63.74
2019-05-26T05:34:03.036Z,61.67
2019-05-26T05:36:35.558Z,62.64
2019-05-26T05:39:10.084Z,62.68
2019-05-26T05:41:42.399Z,61.75
2019-05-26T05:44:18.426Z,62.67
2019-05-26T05:46:50.220Z,60.96
2019-05-26T05:49:22.656Z,60.10
2019-05-26T05:51:54.812Z,60.23
2019-05-26T05:54:27.389Z,60.01
2019-05-26T05:56:59.672Z,59.73
2019-05-26T05:59:31.622Z,58.22
2019-05-26T06:02:10.800Z,59.55
2019-05-26T06:04:46.970Z,57.45
2019-05-26T06:07:21.315Z,56.47
2019-05-26T06:09:53.535Z,55.49
2019-05-26T06:12:25.409Z,57.00
2019-05-26T06:15:13.378Z,55.85
2019-05-26T06:17:58.008Z,54.09
2019-05-26T06:20:29.932Z,55.90
2019-05-26T06:23:02.801Z,54.96
2019-05-26T06:25:39.791Z,54.54
2019-05-26T06:28:11.577Z,52.88
2019-05-26T06:30:44.541Z,52.81
2019-05-26T06:33:17.847Z,52.60
2019-05-26T06:35:50.217Z,54.19
2019-05-26T06:38:25.494Z,52.51
2019-05-26T06:40:59.670Z,52.37
2019-05-26T06:43:31.979Z,53.30
2019-05-26T06:46:04.414Z,54.68
2019-05-26T06:48:36.653Z,51.98
2019-05-26T06:51:09.166Z,50.85
2019-05-26T06:53:40.921Z,51.43
2019-05-26T06:56:17.793Z,52.58
2019-05-26T06:58:49.423Z,50.37
2019-05-26T07:01:21.170Z,48.85
2019-05-26T07:03:53.575Z,48.50
2019-05-26T07:06:26.265Z,50.88
2019-05-26T07:09:02.500Z,47.44
2019-05-26T07:11:52.082Z,47.69
2019-05-26T07:14:12.010Z,46.60
2019-05-26T07:16:44.962Z,48.65
2019-05-26T07:19:18.720Z,49.29
2019-05-26T07:21:52.200Z,48.05
2019-05-26T07:24:24.290Z,47.86
2019-05-26T07:27:00.231Z,48.60
2019-05-26T07:29:32.779Z,49.27
2019-05-26T07:32:05.264Z,49.05
2019-05-26T07:34:37.018Z,47.27
2019-05-26T07:37:09.305Z,46.43
2019-05-26T07:39:41.644Z,46.22
2019-05-26T07:42:13.870Z,45.02
2019-05-26T07:44:46.098Z,45.42
2019-05-26T07:47:17.763Z,46.82
2019-05-26T07:49:49.828Z,47.48
2019-05-26T07:52:22.349Z,47.35
2019-05-26T07:54:54.912Z,46.46
2019-05-26T07:57:27.684Z,48.38
2019-05-26T08:00:00.984Z,48.34
2019-05-26T08:02:33.322Z,50.76
2019-05-26T08:05:08.671Z,49.28
2019-05-26T08:07:44.723Z,47.65
2019-05-26T08:11:20.053Z,47.32
2019-05-26T08:13:52.286Z,45.33
2019-05-26T08:16:23.768Z,47.89
2019-05-26T08:18:56.105Z,50.14
2019-05-26T08:21:28.450Z,50.14
2019-05-26T08:23:59.855Z,46.94
2019-05-26T08:26:33.221Z,45.79
2019-05-26T08:29:05.681Z,45.51
2019-05-26T08:31:37.719Z,46.48
2019-05-26T08:34:11.405Z,48.15
2019-05-26T08:36:42.932Z,48.17
2019-05-26T08:39:15.408Z,47.71
2019-05-26T08:41:47.805Z,48.54
2019-05-26T08:44:19.741Z,50.63
2019-05-26T08:46:52.076Z,51.68
2019-05-26T08:49:23.628Z,47.11
2019-05-26T08:51:55.905Z,44.55
2019-05-26T08:54:28.312Z,43.90
2019-05-26T08:57:00.588Z,45.25
2019-05-26T08:59:32.911Z,46.62
2019-05-26T09:02:04.681Z,47.11
2019-05-26T09:04:36.990Z,49.15
2019-05-26T09:07:09.550Z,48.71
2019-05-26T09:09:46.336Z,49.59
2019-05-26T09:12:19.009Z,48.54
2019-05-26T09:14:51.594Z,50.25
2019-05-26T09:17:24.213Z,49.59
2019-05-26T09:19:56.892Z,50.65
2019-05-26T09:22:28.617Z,46.54
2019-05-26T09:25:01.394Z,48.46
2019-05-26T09:27:34.508Z,47.54
2019-05-26T09:30:09.313Z,49.41
2019-05-26T09:32:44.343Z,48.27
2019-05-26T09:35:16.818Z,47.83
2019-05-26T09:37:49.394Z,43.69
2019-05-26T09:40:23.546Z,43.95
2019-05-26T09:42:55.375Z,43.04
2019-05-26T09:45:27.937Z,46.19
2019-05-26T09:48:00.031Z,46.11
2019-05-26T09:50:32.957Z,46.66
2019-05-26T09:53:25.558Z,49.82
2019-05-26T09:55:59.615Z,48.95
2019-05-26T09:58:32.397Z,50.55
2019-05-26T10:01:05.220Z,51.15
2019-05-26T10:03:40.186Z,50.35
2019-05-26T10:06:12.971Z,50.04
2019-05-26T10:08:50.579Z,49.45
2019-05-26T10:11:30.844Z,47.21
2019-05-26T10:14:13.877Z,47.95
2019-05-26T10:16:51.685Z,46.66
2019-05-26T10:19:24.972Z,44.09
2019-05-26T10:22:05.884Z,43.12
2019-05-26T10:24:45.921Z,46.67
2019-05-26T10:27:21.660Z,44.61
2019-05-26T10:30:05.867Z,46.13
2019-05-26T10:32:48.614Z,45.06
2019-05-26T10:35:37.672Z,47.87
2019-05-26T10:38:17.685Z,47.90
2019-05-26T10:40:53.979Z,50.46
2019-05-26T10:43:51.062Z,49.38
2019-05-26T10:46:34.184Z,50.34
2019-05-26T10:49:16.479Z,49.59
2019-05-26T10:51:51.469Z,50.88
2019-05-26T10:54:30.939Z,54.00
2019-05-26T10:57:09.042Z,53.24
2019-05-26T10:59:43.153Z,52.85
2019-05-26T11:02:15.912Z,50.37
2019-05-26T11:04:53.957Z,50.18
2019-05-26T11:07:31.008Z,49.47
2019-05-26T11:10:10.208Z,48.90
2019-05-26T11:12:54.835Z,48.33
2019-05-26T11:16:06.530Z,53.15
2019-05-26T11:18:42.906Z,49.72
2019-05-26T11:21:21.198Z,49.70
2019-05-26T11:24:23.432Z,46.95
2019-05-26T11:27:11.139Z,46.10
2019-05-26T11:30:01.812Z,48.79
2019-05-26T11:33:13.888Z,50.70
2019-05-26T11:35:51.407Z,51.62
2019-05-26T11:38:23.960Z,51.00
2019-05-26T11:41:31.867Z,53.75
2019-05-26T11:45:53.444Z,53.66
2019-05-26T11:54:13.210Z,49.13
2019-05-26T11:56:50.610Z,50.06
2019-05-26T11:59:47.972Z,45.93
2019-05-26T12:06:07.131Z,47.87
2019-05-26T12:08:40.338Z,48.93
2019-05-26T12:11:13.010Z,50.14
2019-05-26T12:24:47.354Z,46.95
2019-05-26T12:27:23.531Z,48.65
2019-05-26T12:30:17.029Z,47.75
2019-05-26T12:32:50.486Z,47.07
2019-05-26T12:35:24.903Z,48.12
2019-05-26T12:38:27.968Z,46.43
2019-05-26T12:41:07.638Z,47.29
2019-05-26T12:47:04.596Z,49.33
2019-05-26T12:49:54.511Z,47.93
2019-05-26T12:53:12.364Z,50.28
2019-05-26T12:56:24.563Z,50.31
2019-05-26T13:00:19.865Z,50.91
2019-05-26T13:03:34.435Z,49.69
2019-05-26T13:16:44.671Z,56.90
2019-05-26T13:19:24.690Z,58.61
2019-05-26T13:22:10.098Z,58.17
2019-05-26T13:25:10.752Z,58.68
2019-05-26T13:30:00.207Z,58.99
2019-05-26T13:30:45.195Z,59.44
2019-05-26T13:33:21.702Z,58.37
2019-05-26T13:35:58.977Z,58.00
2019-05-26T13:38:48.873Z,56.11
2019-05-26T13:41:48.587Z,55.90
2019-05-26T13:44:31.501Z,58.75
2019-05-26T13:54:45.369Z,59.19
2019-05-26T13:57:42.729Z,61.67
2019-05-26T14:04:37.689Z,61.15
2019-05-26T14:10:30.379Z,59.67
2019-05-26T14:13:37.996Z,60.75
2019-05-26T14:20:18.521Z,60.41
2019-05-26T14:23:20.255Z,60.21
2019-05-26T14:25:55.655Z,60.93
2019-05-26T14:28:31.124Z,61.94
2019-05-26T15:14:45.810Z,60.72
2019-05-26T15:20:58.721Z,61.16
2019-05-26T15:23:32.520Z,60.21
2019-05-26T15:26:16.779Z,61.03
2019-05-26T15:29:16.190Z,61.53
2019-05-26T15:32:22.108Z,60.52
2019-05-26T15:35:20.410Z,60.99
2019-05-26T15:41:12.768Z,62.16
2019-05-26T15:43:52.295Z,64.03
2019-05-26T15:46:37.569Z,62.96
2019-05-26T15:49:10.385Z,62.78
2019-05-26T15:51:42.621Z,62.47
2019-05-26T15:54:23.102Z,63.53
2019-05-26T15:57:11.924Z,64.31
2019-05-26T15:59:59.180Z,63.25
2019-05-26T16:02:44.868Z,63.95
2019-05-26T16:09:19.392Z,66.13
2019-05-26T16:11:55.480Z,63.46
2019-05-26T16:14:28.007Z,64.91
2019-05-26T16:17:00.661Z,66.51
2019-05-26T16:22:13.459Z,68.79
2019-05-26T16:24:45.296Z,68.54
2019-05-26T16:27:20.006Z,68.92
2019-05-26T16:29:52.829Z,68.87
2019-05-26T16:32:24.765Z,68.56
2019-05-26T16:34:58.663Z,70.79
2019-05-26T16:37:33.628Z,70.36
2019-05-26T16:40:09.295Z,72.29
2019-05-26T16:42:43.579Z,70.38
2019-05-26T16:45:16.517Z,71.29
2019-05-26T16:47:48.939Z,71.25
2019-05-26T16:50:23.660Z,72.59
2019-05-26T16:53:06.278Z,71.08
2019-05-26T16:55:42.902Z,71.22
2019-05-26T16:58:18.535Z,72.66
2019-05-26T17:00:54.124Z,73.52
2019-05-26T17:03:41.957Z,73.17
2019-05-26T17:06:23.254Z,73.15
2019-05-26T17:09:03.877Z,73.80
2019-05-26T17:11:40.618Z,74.71
2019-05-26T17:14:12.316Z,72.77
2019-05-26T17:16:44.615Z,73.76
2019-05-26T17:19:16.849Z,74.34
2019-05-26T17:21:58.571Z,73.39
2019-05-26T17:24:31.175Z,73.81
2019-05-26T17:27:40.766Z,72.96
2019-05-26T17:30:12.959Z,73.69
2019-05-26T17:32:51.731Z,74.41
2019-05-26T17:35:41.061Z,75.81
2019-05-26T17:38:44.449Z,75.80
2019-05-26T17:41:19.914Z,76.35
2019-05-26T17:44:06.838Z,76.18
2019-05-26T17:47:30.220Z,76.68
2019-05-26T17:50:07.569Z,77.10
2019-05-26T17:52:45.143Z,78.05
2019-05-26T17:55:21.219Z,76.87
2019-05-26T17:57:59.506Z,77.39
2019-05-26T18:00:32.233Z,75.76
2019-05-26T18:03:12.703Z,73.38
2019-05-26T18:05:44.904Z,73.61
2019-05-26T18:08:20.292Z,73.25
2019-05-26T18:11:00.403Z,71.97
2019-05-26T18:13:33.000Z,69.70
2019-05-26T18:16:15.070Z,71.01
2019-05-26T18:18:47.310Z,71.26
2019-05-26T18:21:24.576Z,67.70
2019-05-26T18:23:59.244Z,67.91
2019-05-26T18:29:31.794Z,67.74
2019-05-26T18:32:08.687Z,66.86
2019-05-26T18:37:52.828Z,69.61
2019-05-26T18:40:35.475Z,67.21
2019-05-26T18:43:18.139Z,66.46
2019-05-26T18:45:51.923Z,64.35
2019-05-26T18:48:24.397Z,64.33
2019-05-26T18:50:58.769Z,70.32
2019-05-26T18:53:31.356Z,66.05
2019-05-26T18:56:27.701Z,63.57
2019-05-26T18:59:42.383Z,65.74
2019-05-26T19:05:56.669Z,68.60
2019-05-26T19:17:04.880Z,64.78
2019-05-26T19:19:45.303Z,64.92
2019-05-26T19:37:00.760Z,62.07
2019-05-26T19:39:50.955Z,61.10
2019-05-26T19:46:53.109Z,61.42
2019-05-26T19:49:51.457Z,66.35
2019-05-26T19:52:25.481Z,63.37
2019-05-26T20:01:16.067Z,64.44
2019-05-26T20:02:18.747Z,65.63
2019-05-26T20:05:13.174Z,68.58
2019-05-26T20:12:00.731Z,67.85
2019-05-26T20:14:33.527Z,70.56
2019-05-26T20:17:09.156Z,67.60
2019-05-26T20:19:41.997Z,69.48
2019-05-26T20:22:14.614Z,71.14
2019-05-26T20:24:46.270Z,69.21
2019-05-26T20:27:18.703Z,67.93
2019-05-26T20:29:50.982Z,68.04
2019-05-26T20:32:29.182Z,69.34
2019-05-26T20:35:01.645Z,68.42
2019-05-26T20:37:33.451Z,68.87
2019-05-26T20:40:06.208Z,68.59
2019-05-26T20:42:38.771Z,70.62
2019-05-26T20:45:11.053Z,70.98
2019-05-26T20:47:43.278Z,70.40
2019-05-26T20:50:28.597Z,71.17
2019-05-26T20:52:50.357Z,71.25
2019-05-26T20:55:23.084Z,70.75
2019-05-26T20:59:05.820Z,70.60
2019-05-26T21:01:39.871Z,70.73
2019-05-26T21:05:15.221Z,71.51
2019-05-26T21:07:48.352Z,72.34
2019-05-26T21:10:27.772Z,72.90
2019-05-26T21:13:08.060Z,72.64
2019-05-26T21:15:47.291Z,73.25
2019-05-26T21:18:50.074Z,72.74
2019-05-26T21:21:25.659Z,72.03
2019-05-26T21:23:58.401Z,73.28
2019-05-26T21:26:30.198Z,74.30
2019-05-26T21:29:02.949Z,73.62
2019-05-26T21:31:35.529Z,73.10
2019-05-26T21:34:12.813Z,72.30
2019-05-26T21:36:44.278Z,72.30
2019-05-26T21:39:16.316Z,72.92
2019-05-26T21:41:48.886Z,72.77
2019-05-26T21:44:21.166Z,73.18
2019-05-26T21:46:53.668Z,72.49
2019-05-26T21:49:28.473Z,73.61
2019-05-26T21:52:00.995Z,73.86
2019-05-26T21:54:35.724Z,74.38
2019-05-26T21:57:08.395Z,74.37
2019-05-26T21:59:40.237Z,75.81
2019-05-26T22:02:12.918Z,75.86
2019-05-26T22:04:59.008Z,73.00
